sensor_id;sensor_type;location;lat;lon;timestamp;pressure;altitude;pressure_sealevel;temperature
10598;BMP180;5346;48.766;8.674;2023-04-25T00:02:08;93433.00;;;4.00
10598;BMP180;5346;48.766;8.674;2023-04-25T00:04:35;93394.00;;;4.10
10598;BMP180;5346;48.766;8.674;2023-04-25T00:07:12;93369.00;;;4.20
10598;BMP180;5346;48.766;8.674;2023-04-25T00:09:53;93410.00;;;4.20
10598;BMP180;5346;48.766;8.674;2023-04-25T00:12:20;93429.00;;;4.30
10598;BMP180;5346;48.766;8.674;2023-04-25T00:14:56;93414.00;;;4.30
10598;BMP180;5346;48.766;8.674;2023-04-25T00:17:26;93436.00;;;4.20
10598;BMP180;5346;48.766;8.674;2023-04-25T00:19:54;93431.00;;;4.20
10598;BMP180;5346;48.766;8.674;2023-04-25T00:22:27;93412.00;;;4.30
10598;BMP180;5346;48.766;8.674;2023-04-25T00:25:02;93440.00;;;4.20
10598;BMP180;5346;48.766;8.674;2023-04-25T00:27:37;93434.00;;;4.50
10598;BMP180;5346;48.766;8.674;2023-04-25T00:30:06;93445.00;;;4.40
10598;BMP180;5346;48.766;8.674;2023-04-25T00:32:40;93435.00;;;4.60
10598;BMP180;5346;48.766;8.674;2023-04-25T00:35:16;93429.00;;;4.10
10598;BMP180;5346;48.766;8.674;2023-04-25T00:37:51;93428.00;;;4.40
10598;BMP180;5346;48.766;8.674;2023-04-25T00:40:25;93410.00;;;4.30
10598;BMP180;5346;48.766;8.674;2023-04-25T00:42:59;93420.00;;;4.20
10598;BMP180;5346;48.766;8.674;2023-04-25T00:45:30;93417.00;;;4.10
10598;BMP180;5346;48.766;8.674;2023-04-25T00:48:04;93372.00;;;4.00
10598;BMP180;5346;48.766;8.674;2023-04-25T00:50:35;93413.00;;;4.10
10598;BMP180;5346;48.766;8.674;2023-04-25T00:53:10;93403.00;;;3.90
10598;BMP180;5346;48.766;8.674;2023-04-25T00:55:44;93380.00;;;3.80
10598;BMP180;5346;48.766;8.674;2023-04-25T00:58:11;93392.00;;;3.70
10598;BMP180;5346;48.766;8.674;2023-04-25T01:00:48;93391.00;;;3.60
10598;BMP180;5346;48.766;8.674;2023-04-25T01:03:17;93394.00;;;3.50
10598;BMP180;5346;48.766;8.674;2023-04-25T01:05:53;93383.00;;;3.40
10598;BMP180;5346;48.766;8.674;2023-04-25T01:08:27;93388.00;;;3.50
10598;BMP180;5346;48.766;8.674;2023-04-25T01:11:01;93397.00;;;3.50
10598;BMP180;5346;48.766;8.674;2023-04-25T01:13:28;93326.00;;;3.50
10598;BMP180;5346;48.766;8.674;2023-04-25T01:16:03;93380.00;;;3.60
10598;BMP180;5346;48.766;8.674;2023-04-25T01:18:33;93387.00;;;3.60
10598;BMP180;5346;48.766;8.674;2023-04-25T01:21:11;93351.00;;;3.50
10598;BMP180;5346;48.766;8.674;2023-04-25T01:23:47;93348.00;;;3.60
10598;BMP180;5346;48.766;8.674;2023-04-25T01:26:15;93351.00;;;3.60
10598;BMP180;5346;48.766;8.674;2023-04-25T01:28:49;93355.00;;;3.60
10598;BMP180;5346;48.766;8.674;2023-04-25T01:31:18;93346.00;;;3.60
10598;BMP180;5346;48.766;8.674;2023-04-25T01:33:45;93391.00;;;3.70
10598;BMP180;5346;48.766;8.674;2023-04-25T01:36:20;93375.00;;;3.80
10598;BMP180;5346;48.766;8.674;2023-04-25T01:38:54;93385.00;;;3.90
10598;BMP180;5346;48.766;8.674;2023-04-25T01:41:28;93371.00;;;4.10
10598;BMP180;5346;48.766;8.674;2023-04-25T01:44:03;93377.00;;;4.00
10598;BMP180;5346;48.766;8.674;2023-04-25T01:46:41;93356.00;;;4.00
10598;BMP180;5346;48.766;8.674;2023-04-25T01:49:16;93354.00;;;3.90
10598;BMP180;5346;48.766;8.674;2023-04-25T01:51:50;93376.00;;;4.00
10598;BMP180;5346;48.766;8.674;2023-04-25T01:54:25;93360.00;;;4.00
10598;BMP180;5346;48.766;8.674;2023-04-25T01:56:59;93362.00;;;4.00
10598;BMP180;5346;48.766;8.674;2023-04-25T01:59:26;93377.00;;;4.10
10598;BMP180;5346;48.766;8.674;2023-04-25T02:02:00;93373.00;;;4.20
10598;BMP180;5346;48.766;8.674;2023-04-25T02:04:37;93377.00;;;4.10
10598;BMP180;5346;48.766;8.674;2023-04-25T02:07:11;93361.00;;;4.30
10598;BMP180;5346;48.766;8.674;2023-04-25T02:09:45;93365.00;;;4.20
10598;BMP180;5346;48.766;8.674;2023-04-25T02:12:20;93371.00;;;4.20
10598;BMP180;5346;48.766;8.674;2023-04-25T02:14:48;93374.00;;;4.10
10598;BMP180;5346;48.766;8.674;2023-04-25T02:17:22;93364.00;;;4.10
10598;BMP180;5346;48.766;8.674;2023-04-25T02:19:57;93361.00;;;4.00
10598;BMP180;5346;48.766;8.674;2023-04-25T02:22:31;93360.00;;;4.00
10598;BMP180;5346;48.766;8.674;2023-04-25T02:25:01;93362.00;;;4.10
10598;BMP180;5346;48.766;8.674;2023-04-25T02:27:35;93314.00;;;4.00
10598;BMP180;5346;48.766;8.674;2023-04-25T02:30:05;93360.00;;;4.00
10598;BMP180;5346;48.766;8.674;2023-04-25T02:32:42;93346.00;;;3.90
10598;BMP180;5346;48.766;8.674;2023-04-25T02:35:09;93317.00;;;4.00
10598;BMP180;5346;48.766;8.674;2023-04-25T02:37:43;93318.00;;;4.00
10598;BMP180;5346;48.766;8.674;2023-04-25T02:40:17;93325.00;;;3.90
10598;BMP180;5346;48.766;8.674;2023-04-25T02:42:52;93323.00;;;3.90
10598;BMP180;5346;48.766;8.674;2023-04-25T02:45:19;93367.00;;;3.80
10598;BMP180;5346;48.766;8.674;2023-04-25T02:47:46;93354.00;;;3.90
10598;BMP180;5346;48.766;8.674;2023-04-25T02:50:20;93354.00;;;4.00
10598;BMP180;5346;48.766;8.674;2023-04-25T02:52:49;93333.00;;;4.10
10598;BMP180;5346;48.766;8.674;2023-04-25T02:55:23;93348.00;;;4.00
10598;BMP180;5346;48.766;8.674;2023-04-25T02:57:58;93353.00;;;4.20
10598;BMP180;5346;48.766;8.674;2023-04-25T03:00:25;93345.00;;;4.10
10598;BMP180;5346;48.766;8.674;2023-04-25T03:03:00;93310.00;;;3.90
10598;BMP180;5346;48.766;8.674;2023-04-25T03:05:28;93342.00;;;3.80
10598;BMP180;5346;48.766;8.674;2023-04-25T03:08:01;93336.00;;;3.70
10598;BMP180;5346;48.766;8.674;2023-04-25T03:10:35;93314.00;;;3.60
10598;BMP180;5346;48.766;8.674;2023-04-25T03:13:09;93338.00;;;3.60
10598;BMP180;5346;48.766;8.674;2023-04-25T03:15:38;93340.00;;;3.40
10598;BMP180;5346;48.766;8.674;2023-04-25T03:18:12;93336.00;;;3.40
10598;BMP180;5346;48.766;8.674;2023-04-25T03:20:39;93320.00;;;3.50
10598;BMP180;5346;48.766;8.674;2023-04-25T03:23:09;93331.00;;;3.60
10598;BMP180;5346;48.766;8.674;2023-04-25T03:25:43;93317.00;;;3.70
10598;BMP180;5346;48.766;8.674;2023-04-25T03:28:10;93328.00;;;3.70
10598;BMP180;5346;48.766;8.674;2023-04-25T03:30:44;93319.00;;;3.70
10598;BMP180;5346;48.766;8.674;2023-04-25T03:33:18;93328.00;;;3.80
10598;BMP180;5346;48.766;8.674;2023-04-25T03:35:53;93336.00;;;3.60
10598;BMP180;5346;48.766;8.674;2023-04-25T03:38:27;93307.00;;;3.60
10598;BMP180;5346;48.766;8.674;2023-04-25T03:41:01;93321.00;;;3.60
10598;BMP180;5346;48.766;8.674;2023-04-25T03:43:35;93293.00;;;3.50
10598;BMP180;5346;48.766;8.674;2023-04-25T03:46:09;93333.00;;;3.50
10598;BMP180;5346;48.766;8.674;2023-04-25T03:48:43;93315.00;;;3.50
10598;BMP180;5346;48.766;8.674;2023-04-25T03:51:11;93320.00;;;3.60
10598;BMP180;5346;48.766;8.674;2023-04-25T03:53:47;93331.00;;;3.70
10598;BMP180;5346;48.766;8.674;2023-04-25T03:56:21;93326.00;;;3.80
10598;BMP180;5346;48.766;8.674;2023-04-25T03:58:48;93301.00;;;3.80
10598;BMP180;5346;48.766;8.674;2023-04-25T04:01:22;93326.00;;;3.90
10598;BMP180;5346;48.766;8.674;2023-04-25T04:03:57;93332.00;;;3.90
10598;BMP180;5346;48.766;8.674;2023-04-25T04:06:39;93309.00;;;4.00
10598;BMP180;5346;48.766;8.674;2023-04-25T04:09:13;93311.00;;;4.00
10598;BMP180;5346;48.766;8.674;2023-04-25T04:11:48;93329.00;;;4.00
10598;BMP180;5346;48.766;8.674;2023-04-25T04:14:22;93302.00;;;4.10
10598;BMP180;5346;48.766;8.674;2023-04-25T04:16:56;93331.00;;;4.10
10598;BMP180;5346;48.766;8.674;2023-04-25T04:19:30;93305.00;;;4.00
10598;BMP180;5346;48.766;8.674;2023-04-25T04:22:04;93318.00;;;4.10
10598;BMP180;5346;48.766;8.674;2023-04-25T04:24:38;93332.00;;;4.10
10598;BMP180;5346;48.766;8.674;2023-04-25T04:27:05;93318.00;;;4.20
10598;BMP180;5346;48.766;8.674;2023-04-25T04:29:40;93325.00;;;4.20
10598;BMP180;5346;48.766;8.674;2023-04-25T04:32:15;93304.00;;;4.10
10598;BMP180;5346;48.766;8.674;2023-04-25T04:34:49;93326.00;;;3.90
10598;BMP180;5346;48.766;8.674;2023-04-25T04:37:16;93327.00;;;4.00
10598;BMP180;5346;48.766;8.674;2023-04-25T04:39:52;93329.00;;;3.90
10598;BMP180;5346;48.766;8.674;2023-04-25T04:42:26;93333.00;;;3.90
10598;BMP180;5346;48.766;8.674;2023-04-25T04:44:54;93344.00;;;3.90
10598;BMP180;5346;48.766;8.674;2023-04-25T04:47:28;93331.00;;;4.00
10598;BMP180;5346;48.766;8.674;2023-04-25T04:49:58;93342.00;;;4.30
10598;BMP180;5346;48.766;8.674;2023-04-25T04:52:31;93352.00;;;4.20
10598;BMP180;5346;48.766;8.674;2023-04-25T04:54:58;93350.00;;;4.30
10598;BMP180;5346;48.766;8.674;2023-04-25T04:57:25;93313.00;;;4.30
10598;BMP180;5346;48.766;8.674;2023-04-25T05:00:01;93343.00;;;4.50
10598;BMP180;5346;48.766;8.674;2023-04-25T05:02:31;93344.00;;;4.40
10598;BMP180;5346;48.766;8.674;2023-04-25T05:05:06;93350.00;;;4.60
10598;BMP180;5346;48.766;8.674;2023-04-25T05:07:42;93348.00;;;4.60
10598;BMP180;5346;48.766;8.674;2023-04-25T05:10:18;93354.00;;;4.30
10598;BMP180;5346;48.766;8.674;2023-04-25T05:12:52;93343.00;;;4.40
10598;BMP180;5346;48.766;8.674;2023-04-25T05:15:26;93330.00;;;4.60
10598;BMP180;5346;48.766;8.674;2023-04-25T05:17:53;93360.00;;;4.40
10598;BMP180;5346;48.766;8.674;2023-04-25T05:20:29;93350.00;;;4.10
10598;BMP180;5346;48.766;8.674;2023-04-25T05:22:56;93352.00;;;4.10
10598;BMP180;5346;48.766;8.674;2023-04-25T05:25:31;93340.00;;;4.30
10598;BMP180;5346;48.766;8.674;2023-04-25T05:28:05;93325.00;;;4.30
10598;BMP180;5346;48.766;8.674;2023-04-25T05:30:39;93335.00;;;4.40
10598;BMP180;5346;48.766;8.674;2023-04-25T05:33:13;93339.00;;;4.60
10598;BMP180;5346;48.766;8.674;2023-04-25T05:36:07;93360.00;;;4.50
10598;BMP180;5346;48.766;8.674;2023-04-25T05:38:55;93348.00;;;4.40
10598;BMP180;5346;48.766;8.674;2023-04-25T05:41:50;93366.00;;;4.30
10598;BMP180;5346;48.766;8.674;2023-04-25T05:44:25;93359.00;;;4.20
10598;BMP180;5346;48.766;8.674;2023-04-25T05:47:00;93374.00;;;3.90
10598;BMP180;5346;48.766;8.674;2023-04-25T05:49:27;93356.00;;;3.60
10598;BMP180;5346;48.766;8.674;2023-04-25T05:52:01;93332.00;;;3.70
10598;BMP180;5346;48.766;8.674;2023-04-25T05:54:30;93372.00;;;3.60
10598;BMP180;5346;48.766;8.674;2023-04-25T05:57:04;93331.00;;;3.60
10598;BMP180;5346;48.766;8.674;2023-04-25T05:59:31;93363.00;;;3.60
10598;BMP180;5346;48.766;8.674;2023-04-25T06:02:05;93369.00;;;3.40
10598;BMP180;5346;48.766;8.674;2023-04-25T06:04:33;93354.00;;;3.50
10598;BMP180;5346;48.766;8.674;2023-04-25T06:07:08;93367.00;;;3.60
10598;BMP180;5346;48.766;8.674;2023-04-25T06:09:43;93360.00;;;3.60
10598;BMP180;5346;48.766;8.674;2023-04-25T06:12:18;93361.00;;;3.60
10598;BMP180;5346;48.766;8.674;2023-04-25T06:14:45;93354.00;;;3.50
10598;BMP180;5346;48.766;8.674;2023-04-25T06:17:19;93354.00;;;3.30
10598;BMP180;5346;48.766;8.674;2023-04-25T06:19:53;93373.00;;;3.70
10598;BMP180;5346;48.766;8.674;2023-04-25T06:22:20;93373.00;;;3.50
10598;BMP180;5346;48.766;8.674;2023-04-25T06:24:54;93370.00;;;3.60
10598;BMP180;5346;48.766;8.674;2023-04-25T06:27:30;93358.00;;;3.60
10598;BMP180;5346;48.766;8.674;2023-04-25T06:30:04;93359.00;;;3.70
10598;BMP180;5346;48.766;8.674;2023-04-25T06:32:32;93301.00;;;3.90
10598;BMP180;5346;48.766;8.674;2023-04-25T06:35:07;93358.00;;;3.90
10598;BMP180;5346;48.766;8.674;2023-04-25T06:37:41;93358.00;;;3.90
10598;BMP180;5346;48.766;8.674;2023-04-25T06:40:09;93360.00;;;3.80
10598;BMP180;5346;48.766;8.674;2023-04-25T06:42:43;93361.00;;;3.90
10598;BMP180;5346;48.766;8.674;2023-04-25T06:45:10;93320.00;;;3.90
10598;BMP180;5346;48.766;8.674;2023-04-25T06:47:45;93367.00;;;3.90
10598;BMP180;5346;48.766;8.674;2023-04-25T06:50:13;93325.00;;;4.10
10598;BMP180;5346;48.766;8.674;2023-04-25T06:52:50;93362.00;;;3.70
10598;BMP180;5346;48.766;8.674;2023-04-25T06:55:24;93311.00;;;3.70
10598;BMP180;5346;48.766;8.674;2023-04-25T06:58:06;93325.00;;;3.70
10598;BMP180;5346;48.766;8.674;2023-04-25T07:00:35;93377.00;;;3.60
10598;BMP180;5346;48.766;8.674;2023-04-25T07:03:09;93370.00;;;3.50
10598;BMP180;5346;48.766;8.674;2023-04-25T07:05:50;93346.00;;;3.70
10598;BMP180;5346;48.766;8.674;2023-04-25T07:08:24;93381.00;;;3.60
10598;BMP180;5346;48.766;8.674;2023-04-25T07:10:57;93380.00;;;3.50
10598;BMP180;5346;48.766;8.674;2023-04-25T07:13:32;93369.00;;;3.80
10598;BMP180;5346;48.766;8.674;2023-04-25T07:16:09;93384.00;;;3.80
10598;BMP180;5346;48.766;8.674;2023-04-25T07:18:43;93378.00;;;3.80
10598;BMP180;5346;48.766;8.674;2023-04-25T07:21:10;93367.00;;;3.80
10598;BMP180;5346;48.766;8.674;2023-04-25T07:23:45;93381.00;;;3.80
10598;BMP180;5346;48.766;8.674;2023-04-25T07:26:13;93383.00;;;3.80
10598;BMP180;5346;48.766;8.674;2023-04-25T07:28:40;93341.00;;;3.90
10598;BMP180;5346;48.766;8.674;2023-04-25T07:31:15;93356.00;;;3.80
10598;BMP180;5346;48.766;8.674;2023-04-25T07:33:44;93396.00;;;3.60
10598;BMP180;5346;48.766;8.674;2023-04-25T07:36:20;93367.00;;;3.60
10598;BMP180;5346;48.766;8.674;2023-04-25T07:38:48;93396.00;;;3.70
10598;BMP180;5346;48.766;8.674;2023-04-25T07:41:21;93387.00;;;3.90
10598;BMP180;5346;48.766;8.674;2023-04-25T07:43:48;93395.00;;;4.20
10598;BMP180;5346;48.766;8.674;2023-04-25T07:46:24;93404.00;;;3.80
10598;BMP180;5346;48.766;8.674;2023-04-25T07:48:52;93398.00;;;4.00
10598;BMP180;5346;48.766;8.674;2023-04-25T07:51:26;93397.00;;;3.70
10598;BMP180;5346;48.766;8.674;2023-04-25T07:54:00;93419.00;;;3.80
10598;BMP180;5346;48.766;8.674;2023-04-25T07:56:27;93410.00;;;3.90
10598;BMP180;5346;48.766;8.674;2023-04-25T07:59:17;93416.00;;;3.90
10598;BMP180;5346;48.766;8.674;2023-04-25T08:01:44;93423.00;;;4.00
10598;BMP180;5346;48.766;8.674;2023-04-25T08:04:18;93420.00;;;4.20
10598;BMP180;5346;48.766;8.674;2023-04-25T08:06:52;93396.00;;;4.10
10598;BMP180;5346;48.766;8.674;2023-04-25T08:09:30;93416.00;;;4.20
10598;BMP180;5346;48.766;8.674;2023-04-25T08:12:09;93423.00;;;4.30
10598;BMP180;5346;48.766;8.674;2023-04-25T08:14:43;93420.00;;;4.30
10598;BMP180;5346;48.766;8.674;2023-04-25T08:17:18;93437.00;;;4.20
10598;BMP180;5346;48.766;8.674;2023-04-25T08:19:52;93432.00;;;4.10
10598;BMP180;5346;48.766;8.674;2023-04-25T08:22:31;93449.00;;;3.70
10598;BMP180;5346;48.766;8.674;2023-04-25T08:24:58;93459.00;;;3.70
10598;BMP180;5346;48.766;8.674;2023-04-25T08:27:32;93395.00;;;3.40
10598;BMP180;5346;48.766;8.674;2023-04-25T08:29:59;93471.00;;;3.60
10598;BMP180;5346;48.766;8.674;2023-04-25T08:32:33;93447.00;;;3.60
10598;BMP180;5346;48.766;8.674;2023-04-25T08:35:00;93470.00;;;3.40
10598;BMP180;5346;48.766;8.674;2023-04-25T08:37:29;93450.00;;;3.50
10598;BMP180;5346;48.766;8.674;2023-04-25T08:40:05;93471.00;;;3.10
10598;BMP180;5346;48.766;8.674;2023-04-25T08:42:42;93487.00;;;3.40
10598;BMP180;5346;48.766;8.674;2023-04-25T08:45:16;93469.00;;;3.30
10598;BMP180;5346;48.766;8.674;2023-04-25T08:47:52;93493.00;;;3.20
10598;BMP180;5346;48.766;8.674;2023-04-25T08:50:22;93493.00;;;3.50
10598;BMP180;5346;48.766;8.674;2023-04-25T08:53:04;93460.00;;;3.30
10598;BMP180;5346;48.766;8.674;2023-04-25T08:55:32;93482.00;;;3.60
10598;BMP180;5346;48.766;8.674;2023-04-25T08:58:06;93496.00;;;3.30
10598;BMP180;5346;48.766;8.674;2023-04-25T09:00:40;93496.00;;;3.50
10598;BMP180;5346;48.766;8.674;2023-04-25T09:03:14;93484.00;;;3.50
10598;BMP180;5346;48.766;8.674;2023-04-25T09:05:49;93504.00;;;3.40
10598;BMP180;5346;48.766;8.674;2023-04-25T09:08:23;93508.00;;;3.60
10598;BMP180;5346;48.766;8.674;2023-04-25T09:10:50;93510.00;;;3.40
10598;BMP180;5346;48.766;8.674;2023-04-25T09:13:27;93489.00;;;3.60
10598;BMP180;5346;48.766;8.674;2023-04-25T09:16:01;93503.00;;;3.80
10598;BMP180;5346;48.766;8.674;2023-04-25T09:18:35;93528.00;;;3.90
10598;BMP180;5346;48.766;8.674;2023-04-25T09:21:12;93511.00;;;3.90
10598;BMP180;5346;48.766;8.674;2023-04-25T09:23:48;93529.00;;;3.60
10598;BMP180;5346;48.766;8.674;2023-04-25T09:26:18;93539.00;;;3.90
10598;BMP180;5346;48.766;8.674;2023-04-25T09:29:06;93527.00;;;4.00
10598;BMP180;5346;48.766;8.674;2023-04-25T09:31:34;93526.00;;;4.10
10598;BMP180;5346;48.766;8.674;2023-04-25T09:34:10;93538.00;;;3.90
10598;BMP180;5346;48.766;8.674;2023-04-25T09:36:42;93527.00;;;4.20
10598;BMP180;5346;48.766;8.674;2023-04-25T09:39:17;93541.00;;;3.70
10598;BMP180;5346;48.766;8.674;2023-04-25T09:41:47;93488.00;;;3.80
10598;BMP180;5346;48.766;8.674;2023-04-25T09:44:24;93552.00;;;3.90
10598;BMP180;5346;48.766;8.674;2023-04-25T09:46:58;93556.00;;;4.20
10598;BMP180;5346;48.766;8.674;2023-04-25T09:49:34;93529.00;;;3.50
10598;BMP180;5346;48.766;8.674;2023-04-25T09:52:16;93540.00;;;3.90
10598;BMP180;5346;48.766;8.674;2023-04-25T09:54:52;93535.00;;;4.00
10598;BMP180;5346;48.766;8.674;2023-04-25T09:57:26;93524.00;;;4.30
10598;BMP180;5346;48.766;8.674;2023-04-25T10:00:01;93555.00;;;4.30
10598;BMP180;5346;48.766;8.674;2023-04-25T10:02:41;93556.00;;;4.50
10598;BMP180;5346;48.766;8.674;2023-04-25T10:05:11;93564.00;;;4.50
10598;BMP180;5346;48.766;8.674;2023-04-25T10:07:45;93551.00;;;4.40
10598;BMP180;5346;48.766;8.674;2023-04-25T10:10:20;93522.00;;;4.80
10598;BMP180;5346;48.766;8.674;2023-04-25T10:13:00;93567.00;;;4.80
10598;BMP180;5346;48.766;8.674;2023-04-25T10:15:28;93562.00;;;4.70
10598;BMP180;5346;48.766;8.674;2023-04-25T10:18:06;93570.00;;;5.20
10598;BMP180;5346;48.766;8.674;2023-04-25T10:20:34;93471.00;;;5.00
10598;BMP180;5346;48.766;8.674;2023-04-25T10:23:15;93552.00;;;6.20
10598;BMP180;5346;48.766;8.674;2023-04-25T10:25:44;93557.00;;;6.00
10598;BMP180;5346;48.766;8.674;2023-04-25T10:28:19;93566.00;;;6.10
10598;BMP180;5346;48.766;8.674;2023-04-25T10:31:01;93549.00;;;6.40
10598;BMP180;5346;48.766;8.674;2023-04-25T10:33:38;93558.00;;;6.50
10598;BMP180;5346;48.766;8.674;2023-04-25T10:36:19;93555.00;;;5.70
10598;BMP180;5346;48.766;8.674;2023-04-25T10:38:54;93578.00;;;6.00
10598;BMP180;5346;48.766;8.674;2023-04-25T10:41:28;93545.00;;;5.30
10598;BMP180;5346;48.766;8.674;2023-04-25T10:44:00;93578.00;;;5.40
10598;BMP180;5346;48.766;8.674;2023-04-25T10:46:37;93572.00;;;5.10
10598;BMP180;5346;48.766;8.674;2023-04-25T10:49:06;93593.00;;;5.60
10598;BMP180;5346;48.766;8.674;2023-04-25T10:51:47;93597.00;;;5.60
10598;BMP180;5346;48.766;8.674;2023-04-25T10:54:22;93618.00;;;5.10
10598;BMP180;5346;48.766;8.674;2023-04-25T10:56:59;93604.00;;;5.70
10598;BMP180;5346;48.766;8.674;2023-04-25T10:59:33;93620.00;;;5.40
10598;BMP180;5346;48.766;8.674;2023-04-25T11:02:12;93629.00;;;5.50
10598;BMP180;5346;48.766;8.674;2023-04-25T11:04:47;93633.00;;;5.20
10598;BMP180;5346;48.766;8.674;2023-04-25T11:07:52;93601.00;;;5.10
10598;BMP180;5346;48.766;8.674;2023-04-25T11:10:34;93643.00;;;5.60
10598;BMP180;5346;48.766;8.674;2023-04-25T11:13:16;93638.00;;;5.00
10598;BMP180;5346;48.766;8.674;2023-04-25T11:15:53;93649.00;;;5.10
10598;BMP180;5346;48.766;8.674;2023-04-25T11:18:42;93625.00;;;5.30
10598;BMP180;5346;48.766;8.674;2023-04-25T11:21:16;93615.00;;;5.20
10598;BMP180;5346;48.766;8.674;2023-04-25T11:23:50;93646.00;;;4.80
10598;BMP180;5346;48.766;8.674;2023-04-25T11:26:19;93603.00;;;4.90
10598;BMP180;5346;48.766;8.674;2023-04-25T11:28:58;93659.00;;;5.00
10598;BMP180;5346;48.766;8.674;2023-04-25T11:31:30;93633.00;;;5.20
10598;BMP180;5346;48.766;8.674;2023-04-25T11:34:04;93655.00;;;4.90
10598;BMP180;5346;48.766;8.674;2023-04-25T11:36:31;93658.00;;;4.80
10598;BMP180;5346;48.766;8.674;2023-04-25T11:39:05;93651.00;;;4.60
10598;BMP180;5346;48.766;8.674;2023-04-25T11:41:39;93643.00;;;4.80
10598;BMP180;5346;48.766;8.674;2023-04-25T11:44:18;93645.00;;;4.90
10598;BMP180;5346;48.766;8.674;2023-04-25T11:46:48;93642.00;;;5.00
10598;BMP180;5346;48.766;8.674;2023-04-25T11:49:22;93654.00;;;4.70
10598;BMP180;5346;48.766;8.674;2023-04-25T11:51:51;93665.00;;;4.70
10598;BMP180;5346;48.766;8.674;2023-04-25T11:54:25;93637.00;;;5.10
10598;BMP180;5346;48.766;8.674;2023-04-25T11:56:53;93663.00;;;5.20
10598;BMP180;5346;48.766;8.674;2023-04-25T11:59:30;93624.00;;;5.40
10598;BMP180;5346;48.766;8.674;2023-04-25T12:01:58;93644.00;;;5.50
10598;BMP180;5346;48.766;8.674;2023-04-25T12:04:35;93644.00;;;6.00
10598;BMP180;5346;48.766;8.674;2023-04-25T12:07:03;93616.00;;;7.00
10598;BMP180;5346;48.766;8.674;2023-04-25T12:09:52;93631.00;;;8.20
10598;BMP180;5346;48.766;8.674;2023-04-25T12:12:27;93600.00;;;7.60
10598;BMP180;5346;48.766;8.674;2023-04-25T12:15:33;93660.00;;;7.80
10598;BMP180;5346;48.766;8.674;2023-04-25T12:18:07;93619.00;;;7.30
10598;BMP180;5346;48.766;8.674;2023-04-25T12:20:48;93664.00;;;7.70
10598;BMP180;5346;48.766;8.674;2023-04-25T12:23:28;93665.00;;;8.40
10598;BMP180;5346;48.766;8.674;2023-04-25T12:25:55;93628.00;;;6.50
10598;BMP180;5346;48.766;8.674;2023-04-25T12:28:32;93635.00;;;7.70
10598;BMP180;5346;48.766;8.674;2023-04-25T12:31:06;93652.00;;;7.90
10598;BMP180;5346;48.766;8.674;2023-04-25T12:33:36;93667.00;;;8.50
10598;BMP180;5346;48.766;8.674;2023-04-25T12:36:10;93667.00;;;7.70
10598;BMP180;5346;48.766;8.674;2023-04-25T12:38:41;93682.00;;;7.10
10598;BMP180;5346;48.766;8.674;2023-04-25T12:41:15;93697.00;;;7.00
10598;BMP180;5346;48.766;8.674;2023-04-25T12:43:43;93668.00;;;7.00
10598;BMP180;5346;48.766;8.674;2023-04-25T12:46:10;93679.00;;;7.60
10598;BMP180;5346;48.766;8.674;2023-04-25T12:48:44;93636.00;;;8.20
10598;BMP180;5346;48.766;8.674;2023-04-25T12:51:12;93672.00;;;7.50
10598;BMP180;5346;48.766;8.674;2023-04-25T12:53:46;93656.00;;;8.60
10598;BMP180;5346;48.766;8.674;2023-04-25T12:56:13;93678.00;;;8.00
10598;BMP180;5346;48.766;8.674;2023-04-25T12:58:51;93614.00;;;7.60
10598;BMP180;5346;48.766;8.674;2023-04-25T13:01:21;93652.00;;;8.00
10598;BMP180;5346;48.766;8.674;2023-04-25T13:03:56;93707.00;;;7.20
10598;BMP180;5346;48.766;8.674;2023-04-25T13:06:24;93702.00;;;7.30
10598;BMP180;5346;48.766;8.674;2023-04-25T13:08:58;93686.00;;;7.00
10598;BMP180;5346;48.766;8.674;2023-04-25T13:11:25;93686.00;;;7.00
10598;BMP180;5346;48.766;8.674;2023-04-25T13:13:52;93713.00;;;7.00
10598;BMP180;5346;48.766;8.674;2023-04-25T13:16:28;93719.00;;;6.60
10598;BMP180;5346;48.766;8.674;2023-04-25T13:18:55;93730.00;;;6.90
10598;BMP180;5346;48.766;8.674;2023-04-25T13:21:30;93656.00;;;7.00
10598;BMP180;5346;48.766;8.674;2023-04-25T13:24:06;93701.00;;;6.30
10598;BMP180;5346;48.766;8.674;2023-04-25T13:26:40;93680.00;;;5.70
10598;BMP180;5346;48.766;8.674;2023-04-25T13:29:08;93730.00;;;6.40
10598;BMP180;5346;48.766;8.674;2023-04-25T13:31:42;93731.00;;;6.10
10598;BMP180;5346;48.766;8.674;2023-04-25T13:34:09;93731.00;;;6.20
10598;BMP180;5346;48.766;8.674;2023-04-25T13:36:43;93722.00;;;6.60
10598;BMP180;5346;48.766;8.674;2023-04-25T13:39:10;93724.00;;;6.30
10598;BMP180;5346;48.766;8.674;2023-04-25T13:41:44;93693.00;;;5.70
10598;BMP180;5346;48.766;8.674;2023-04-25T13:44:19;93687.00;;;6.80
10598;BMP180;5346;48.766;8.674;2023-04-25T13:46:54;93718.00;;;7.30
10598;BMP180;5346;48.766;8.674;2023-04-25T13:49:30;93711.00;;;7.70
10598;BMP180;5346;48.766;8.674;2023-04-25T13:52:04;93671.00;;;7.90
10598;BMP180;5346;48.766;8.674;2023-04-25T13:54:32;93706.00;;;7.80
10598;BMP180;5346;48.766;8.674;2023-04-25T13:57:08;93712.00;;;7.70
10598;BMP180;5346;48.766;8.674;2023-04-25T13:59:35;93704.00;;;8.20
10598;BMP180;5346;48.766;8.674;2023-04-25T14:02:09;93710.00;;;8.30
10598;BMP180;5346;48.766;8.674;2023-04-25T14:04:43;93705.00;;;9.30
10598;BMP180;5346;48.766;8.674;2023-04-25T14:07:18;93670.00;;;9.30
10598;BMP180;5346;48.766;8.674;2023-04-25T14:09:58;93706.00;;;8.30
10598;BMP180;5346;48.766;8.674;2023-04-25T14:12:33;93710.00;;;9.20
10598;BMP180;5346;48.766;8.674;2023-04-25T14:15:09;93701.00;;;9.30
10598;BMP180;5346;48.766;8.674;2023-04-25T14:17:44;93673.00;;;9.60
10598;BMP180;5346;48.766;8.674;2023-04-25T14:20:13;93695.00;;;10.60
10598;BMP180;5346;48.766;8.674;2023-04-25T14:22:46;93709.00;;;11.20
10598;BMP180;5346;48.766;8.674;2023-04-25T14:25:20;93706.00;;;10.80
10598;BMP180;5346;48.766;8.674;2023-04-25T14:27:55;93690.00;;;12.50
10598;BMP180;5346;48.766;8.674;2023-04-25T14:30:22;93667.00;;;12.00
10598;BMP180;5346;48.766;8.674;2023-04-25T14:32:56;93679.00;;;12.20
10598;BMP180;5346;48.766;8.674;2023-04-25T14:35:30;93685.00;;;14.00
10598;BMP180;5346;48.766;8.674;2023-04-25T14:38:13;93673.00;;;15.50
10598;BMP180;5346;48.766;8.674;2023-04-25T14:40:48;93707.00;;;14.70
10598;BMP180;5346;48.766;8.674;2023-04-25T14:43:29;93715.00;;;12.60
10598;BMP180;5346;48.766;8.674;2023-04-25T14:45:57;93722.00;;;10.70
10598;BMP180;5346;48.766;8.674;2023-04-25T14:48:24;93715.00;;;11.10
10598;BMP180;5346;48.766;8.674;2023-04-25T14:50:59;93699.00;;;11.20
10598;BMP180;5346;48.766;8.674;2023-04-25T14:53:31;93708.00;;;11.20
10598;BMP180;5346;48.766;8.674;2023-04-25T14:56:06;93686.00;;;10.80
10598;BMP180;5346;48.766;8.674;2023-04-25T14:58:41;93696.00;;;10.60
10598;BMP180;5346;48.766;8.674;2023-04-25T15:01:09;93726.00;;;10.20
10598;BMP180;5346;48.766;8.674;2023-04-25T15:03:46;93685.00;;;8.90
10598;BMP180;5346;48.766;8.674;2023-04-25T15:06:13;93748.00;;;8.90
10598;BMP180;5346;48.766;8.674;2023-04-25T15:08:56;93727.00;;;8.60
10598;BMP180;5346;48.766;8.674;2023-04-25T15:11:24;93740.00;;;8.10